This is the latest recevied weather packets stored in our database for station/object GW1597. If no packets are shown the sender has not sent any weather packets the latest 10 day(s).
| Time | Temp. | Humidity | Pressure | Rain* | Wind** | Luminosity | Snow |
|---|---|---|---|---|---|---|---|
| 1777625668 | 4.44° C | 95% | 989.5 hPa | 0 mm | - | - | - |
| 1777624612 | 4.44° C | 95% | 989.5 hPa | 0 mm | - | - | - |
| 1777624253 | 4.44° C | 95% | 989.5 hPa | 0 mm | - | - | - |
| 1777623876 | 4.44° C | 95% | 989.5 hPa | 0 mm | - | - | - |
| 1777623144 | 4.44° C | 95% | 989.5 hPa | 0 mm | - | - | - |
| 1777621373 | 3.89° C | 95% | 989.5 hPa | 0 mm | - | - | - |
| 1777620987 | 3.89° C | 95% | 989.5 hPa | 0 mm | - | - | - |
| 1777618453 | 3.89° C | 95% | 989.5 hPa | 0 mm | - | - | - |
| 1777615948 | 3.89° C | 95% | 990.1 hPa | 0 mm | - | - | - |
| 1777613420 | 4.44° C | 95% | 990.1 hPa | 0 mm | - | - | - |
| 1777605170 | 5.56° C | 93% | 990.1 hPa | 0 mm | - | - | - |
| 1777604801 | 5.56° C | 93% | 990.5 hPa | 0 mm | - | - | - |
| 1777602278 | 6.11° C | 91% | 990.1 hPa | 0 mm | - | - | - |
| 1777600495 | 6.67° C | 90% | 989.8 hPa | 0 mm | - | - | - |
| 1777598331 | 7.78° C | 87% | 989.5 hPa | 0 mm | - | - | - |
| 1777595807 | 8.89° C | 80% | 989.1 hPa | 0 mm | - | - | - |
| 1777592921 | 11.67° C | 68% | 988.1 hPa | 0 mm | - | - | - |
| 1777590413 | 14.44° C | 54% | 988.1 hPa | 0 mm | - | - | - |
| 1777588951 | 15° C | 52% | 988.1 hPa | 0 mm | - | - | - |
| 1777584619 | 15.56° C | 51% | 987.8 hPa | 0 mm | - | - | - |
| 1777583566 | 16.67° C | 50% | 987.8 hPa | 0 mm | - | - | - |
| 1777573462 | 16.67° C | 45% | 987.4 hPa | 0 mm | - | - | - |
| 1777573123 | 16.11° C | 49% | 987.4 hPa | 0 mm | - | - | - |
| 1777568074 | 16.67° C | 47% | 988.1 hPa | 0 mm | - | - | - |
| 1777564853 | 15.56° C | 50% | 988.1 hPa | 0 mm | - | - | - |
* Rain since midnight (hover to see other rain measurements)
** Current wind speed in m/s (hover to see current wind gust speed)